Time;durP1;ratioP1;P1;durP2;ratioP2;P2;SDS_P1;SDS_P2;PMS_P1;PMS_P2;Temp;Humidity;BMP_temperature;BMP_pressure;BME280_temperature;BME280_humidity;BME280_pressure;Samples;Min_cycle;Max_cycle;Signal;HPM_P1;HPM_P2
2023/09/28 00:01:59;;;;;;;;;;;;;;;31.49;26.92;98724.03;5005402;28;20009;-92
2023/09/28 00:04:25;;;;;;;;;;;;;;;31.41;27.07;98727.13;5010799;28;20683;-92
2023/09/28 00:06:51;;;;;;;;;;;;;;;31.47;27.11;98727.34;5004569;28;20016;-91
2023/09/28 00:09:17;;;;;;;;;;;;;;;31.27;27.25;98722.03;4998184;28;19980;-91
2023/09/28 00:11:45;;;;;;;;;;;;;;;31.31;27.17;98719.06;5007317;28;19975;-91
2023/09/28 00:14:11;;;;;;;;;;;;;;;31.53;27.72;98716.19;5010757;28;20293;-91
2023/09/28 00:16:37;;;;;;;;;;;;;;;31.56;26.69;98720.88;5010963;28;19928;-91
2023/09/28 00:19:04;;;;;;;;;;;;;;;31.76;26.54;98724.91;5008629;28;19936;-91
2023/09/28 00:21:30;;;;;;;;;;;;;;;31.71;27.22;98725.50;5007604;28;19932;-91
2023/09/28 00:23:57;;;;;;;;;;;;;;;31.80;27.27;98719.84;5002848;28;19925;-91
2023/09/28 00:26:23;;;;;;;;;;;;;;;31.72;28.33;98712.88;5002705;28;19922;-92
2023/09/28 00:28:50;;;;;;;;;;;;;;;31.87;27.66;98719.53;5002902;28;19925;-91
2023/09/28 00:31:16;;;;;;;;;;;;;;;31.78;27.39;98716.69;4999562;28;20340;-91
2023/09/28 00:33:43;;;;;;;;;;;;;;;31.74;26.81;98718.88;5007436;28;19975;-92
2023/09/28 00:36:09;;;;;;;;;;;;;;;31.95;26.63;98729.31;5008439;28;20015;-91
2023/09/28 00:38:35;;;;;;;;;;;;;;;31.99;26.65;98720.66;5003605;28;20073;-92
2023/09/28 00:41:01;;;;;;;;;;;;;;;31.76;27.03;98716.38;5010121;28;19922;-91
2023/09/28 00:43:27;;;;;;;;;;;;;;;31.72;27.05;98718.56;5003660;28;19922;-91
2023/09/28 00:45:53;;;;;;;;;;;;;;;31.66;26.84;98720.44;5008663;28;20262;-91
2023/09/28 00:48:20;;;;;;;;;;;;;;;31.69;26.84;98713.03;5007712;28;19928;-91
2023/09/28 00:50:46;;;;;;;;;;;;;;;31.79;26.66;98711.78;5004004;28;20020;-91
2023/09/28 00:53:12;;;;;;;;;;;;;;;31.62;27.27;98711.31;5007938;28;20395;-91
2023/09/28 00:55:39;;;;;;;;;;;;;;;31.69;26.75;98715.88;5002615;28;19928;-91
2023/09/28 00:58:05;;;;;;;;;;;;;;;31.71;27.39;98716.19;5007974;28;19949;-90
2023/09/28 01:00:33;;;;;;;;;;;;;;;31.83;26.42;98721.75;5007762;28;19972;-90
2023/09/28 01:03:02;;;;;;;;;;;;;;;31.92;26.09;98710.38;5009025;28;20012;-90
2023/09/28 01:05:33;;;;;;;;;;;;;;;31.33;26.60;98716.56;5007495;28;19921;-91
2023/09/28 01:08:11;;;;;;;;;;;;;;;31.15;27.08;98722.19;5012782;28;19929;-91
2023/09/28 01:10:38;;;;;;;;;;;;;;;31.03;27.50;98721.03;5007143;28;19928;-91
2023/09/28 01:13:11;;;;;;;;;;;;;;;31.35;27.05;98717.66;5012399;28;20019;-91
2023/09/28 01:15:47;;;;;;;;;;;;;;;31.33;27.94;98719.41;5007924;28;20455;-91
2023/09/28 01:18:17;;;;;;;;;;;;;;;31.18;27.84;98721.25;5001656;28;20366;-90
2023/09/28 01:20:43;;;;;;;;;;;;;;;31.37;27.43;98725.69;5010416;28;19931;-90
2023/09/28 01:23:10;;;;;;;;;;;;;;;31.14;27.35;98731.94;5013392;28;19928;-90
2023/09/28 01:25:36;;;;;;;;;;;;;;;31.14;27.43;98729.09;5013029;28;19917;-90
2023/09/28 01:28:03;;;;;;;;;;;;;;;31.27;27.00;98733.41;5011705;28;19976;-90
2023/09/28 01:30:30;;;;;;;;;;;;;;;31.14;27.51;98727.06;5009540;28;19950;-90
2023/09/28 01:32:56;;;;;;;;;;;;;;;31.30;27.61;98723.97;5013112;28;19929;-90
2023/09/28 01:35:22;;;;;;;;;;;;;;;31.17;26.97;98725.34;5013092;28;20304;-90
2023/09/28 01:37:58;;;;;;;;;;;;;;;31.40;26.90;98719.09;5030309;28;20387;-91
2023/09/28 01:40:24;;;;;;;;;;;;;;;31.44;26.56;98725.44;5014721;28;19929;-90
2023/09/28 01:42:50;;;;;;;;;;;;;;;31.56;25.85;98729.41;5001342;28;19928;-90
2023/09/28 01:45:16;;;;;;;;;;;;;;;31.69;25.77;98727.25;4997932;28;19922;-90
2023/09/28 01:47:42;;;;;;;;;;;;;;;31.71;25.35;98731.19;5009585;28;20052;-90
2023/09/28 01:50:08;;;;;;;;;;;;;;;31.30;25.63;98729.63;5006719;28;19926;-91
2023/09/28 01:52:34;;;;;;;;;;;;;;;31.34;25.96;98726.66;5007699;28;20367;-91
2023/09/28 01:55:01;;;;;;;;;;;;;;;31.19;26.68;98723.63;5005470;28;20250;-90
2023/09/28 01:57:27;;;;;;;;;;;;;;;31.39;25.93;98726.06;5011751;28;19921;-91
2023/09/28 01:59:53;;;;;;;;;;;;;;;31.14;26.17;98720.59;5012360;28;20298;-91
2023/09/28 02:02:21;;;;;;;;;;;;;;;31.04;26.29;98714.09;5006756;28;20097;-91
2023/09/28 02:04:47;;;;;;;;;;;;;;;31.27;25.69;98721.28;5004485;28;19929;-91
2023/09/28 02:07:13;;;;;;;;;;;;;;;31.29;25.54;98727.28;5009834;28;20314;-91
2023/09/28 02:09:39;;;;;;;;;;;;;;;31.08;25.93;98713.97;5005783;28;19965;-91
2023/09/28 02:12:06;;;;;;;;;;;;;;;31.15;26.34;98717.31;5007545;28;19917;-92
2023/09/28 02:14:32;;;;;;;;;;;;;;;31.23;25.35;98718.56;5006297;28;19983;-91
2023/09/28 02:16:58;;;;;;;;;;;;;;;30.77;26.05;98717.56;5014015;28;19921;-90
2023/09/28 02:19:24;;;;;;;;;;;;;;;30.80;25.88;98710.19;5010480;28;19976;-90
2023/09/28 02:21:53;;;;;;;;;;;;;;;30.86;26.08;98719.66;4998016;28;19926;-90
2023/09/28 02:24:19;;;;;;;;;;;;;;;30.57;26.14;98722.78;5002961;28;19918;-91
2023/09/28 02:26:45;;;;;;;;;;;;;;;30.86;26.21;98727.38;5006345;28;20373;-90
2023/09/28 02:29:12;;;;;;;;;;;;;;;31.01;26.23;98728.44;4999078;28;19929;-91
2023/09/28 02:31:41;;;;;;;;;;;;;;;31.19;25.92;98717.94;5007720;28;19926;-91
2023/09/28 02:34:09;;;;;;;;;;;;;;;30.92;26.64;98720.69;5007582;28;20249;-91
2023/09/28 02:36:36;;;;;;;;;;;;;;;30.74;26.28;98718.50;5014077;28;19936;-90
2023/09/28 02:39:07;;;;;;;;;;;;;;;30.82;26.68;98721.84;5015514;28;20389;-90
2023/09/28 02:41:33;;;;;;;;;;;;;;;30.94;26.05;98717.38;5000029;28;19976;-90
2023/09/28 02:43:59;;;;;;;;;;;;;;;30.66;26.07;98725.72;5001292;28;20008;-90
2023/09/28 02:46:26;;;;;;;;;;;;;;;30.61;26.39;98723.47;5012164;28;19953;-90
2023/09/28 02:48:52;;;;;;;;;;;;;;;30.57;26.40;98724.88;5010285;28;20016;-90
2023/09/28 02:51:18;;;;;;;;;;;;;;;30.48;26.31;98725.56;5006225;28;20024;-90
2023/09/28 02:53:44;;;;;;;;;;;;;;;30.63;26.47;98731.50;5010123;28;20353;-90
2023/09/28 02:56:12;;;;;;;;;;;;;;;30.76;26.39;98730.16;5011644;28;19990;-90
2023/09/28 02:58:38;;;;;;;;;;;;;;;30.80;26.47;98729.22;5006907;28;20356;-90
2023/09/28 03:01:05;;;;;;;;;;;;;;;30.94;25.87;98726.66;5012308;28;20381;-90
2023/09/28 03:03:31;;;;;;;;;;;;;;;30.61;25.99;98723.47;5009334;28;19921;-90
2023/09/28 03:05:58;;;;;;;;;;;;;;;30.45;26.73;98720.06;5006116;28;19924;-89
2023/09/28 03:08:24;;;;;;;;;;;;;;;30.18;27.17;98723.44;5010617;28;19944;-90
2023/09/28 03:10:51;;;;;;;;;;;;;;;30.33;27.18;98721.72;5012381;28;19991;-90
2023/09/28 03:13:18;;;;;;;;;;;;;;;30.33;27.29;98724.53;5008503;28;19925;-90
2023/09/28 03:15:45;;;;;;;;;;;;;;;30.64;26.37;98721.75;5012520;28;19933;-90
2023/09/28 03:18:11;;;;;;;;;;;;;;;30.60;27.58;98721.06;5011930;28;20008;-90
2023/09/28 03:20:38;;;;;;;;;;;;;;;30.84;26.83;98712.88;5004867;28;20277;-90
2023/09/28 03:23:04;;;;;;;;;;;;;;;30.91;26.63;98721.13;5006434;28;19945;-89
2023/09/28 03:25:30;;;;;;;;;;;;;;;30.97;26.09;98716.44;5008566;28;20389;-89
2023/09/28 03:27:56;;;;;;;;;;;;;;;31.03;26.31;98714.56;5012154;28;19921;-90
2023/09/28 03:30:24;;;;;;;;;;;;;;;31.04;26.44;98716.91;5011521;28;19977;-90
2023/09/28 03:32:50;;;;;;;;;;;;;;;31.13;26.17;98716.97;5005084;28;19969;-90
2023/09/28 03:35:17;;;;;;;;;;;;;;;30.94;26.55;98714.53;5016943;28;19933;-90
2023/09/28 03:37:44;;;;;;;;;;;;;;;30.80;26.32;98727.19;5014650;28;19972;-90
2023/09/28 03:40:11;;;;;;;;;;;;;;;30.58;26.40;98721.56;5012149;28;19976;-90
2023/09/28 03:42:38;;;;;;;;;;;;;;;30.47;26.53;98717.53;5013703;28;19928;-89
2023/09/28 03:45:04;;;;;;;;;;;;;;;30.46;26.72;98716.75;4999825;28;19953;-89
2023/09/28 03:47:32;;;;;;;;;;;;;;;30.71;26.48;98732.81;5004271;28;20008;-90
2023/09/28 03:49:58;;;;;;;;;;;;;;;30.78;26.69;98719.13;5010303;28;19944;-90
2023/09/28 03:52:24;;;;;;;;;;;;;;;30.83;26.46;98723.41;5012979;28;20320;-90
2023/09/28 03:54:50;;;;;;;;;;;;;;;30.64;26.38;98722.53;5009857;28;20398;-90
2023/09/28 03:57:17;;;;;;;;;;;;;;;30.62;26.71;98721.44;5006367;28;19928;-90
2023/09/28 03:59:43;;;;;;;;;;;;;;;30.57;26.66;98724.88;5010557;28;19968;-90
2023/09/28 04:02:09;;;;;;;;;;;;;;;30.64;26.52;98719.69;5011991;28;19918;-89
2023/09/28 04:04:35;;;;;;;;;;;;;;;30.80;26.39;98717.91;5014295;28;20459;-89
2023/09/28 04:07:01;;;;;;;;;;;;;;;30.86;26.54;98716.03;5012287;28;19917;-88
2023/09/28 04:09:27;;;;;;;;;;;;;;;30.97;26.15;98713.59;5019829;28;20373;-89
2023/09/28 04:11:53;;;;;;;;;;;;;;;30.97;26.35;98717.22;5009912;28;20125;-88
2023/09/28 04:14:19;;;;;;;;;;;;;;;30.74;26.61;98712.03;5011784;28;20336;-88
2023/09/28 04:16:46;;;;;;;;;;;;;;;30.86;26.62;98711.16;5004097;28;19961;-89
2023/09/28 04:19:12;;;;;;;;;;;;;;;30.89;26.55;98715.13;5005627;28;19922;-88
2023/09/28 04:21:38;;;;;;;;;;;;;;;30.82;26.59;98718.22;5015043;28;19926;-88
2023/09/28 04:24:04;;;;;;;;;;;;;;;31.03;26.18;98717.41;5000112;28;19930;-89
2023/09/28 04:26:30;;;;;;;;;;;;;;;31.08;25.81;98719.63;5007428;28;19926;-89
2023/09/28 04:28:56;;;;;;;;;;;;;;;31.10;25.90;98715.06;5002200;28;19929;-89
2023/09/28 04:31:22;;;;;;;;;;;;;;;31.21;25.14;98709.75;5005697;28;20378;-90
2023/09/28 04:33:49;;;;;;;;;;;;;;;31.12;25.23;98715.38;5004885;28;19929;-90
2023/09/28 04:36:15;;;;;;;;;;;;;;;31.06;25.01;98716.47;5004416;28;19955;-90
2023/09/28 04:38:41;;;;;;;;;;;;;;;30.88;25.24;98713.53;5011332;28;19925;-91
2023/09/28 04:41:07;;;;;;;;;;;;;;;31.04;24.95;98721.81;5010944;28;19925;-94
2023/09/28 04:43:33;;;;;;;;;;;;;;;31.04;25.20;98728.28;5012727;28;19921;-90
2023/09/28 04:46:06;;;;;;;;;;;;;;;31.05;25.17;98729.06;5009667;28;19976;-90
2023/09/28 04:48:33;;;;;;;;;;;;;;;30.54;25.66;98729.41;5009211;28;19921;-88
2023/09/28 04:50:59;;;;;;;;;;;;;;;30.17;26.35;98733.22;5006884;28;19921;-88
2023/09/28 04:53:26;;;;;;;;;;;;;;;30.00;26.55;98741.09;5005074;28;24075;-88
2023/09/28 04:55:52;;;;;;;;;;;;;;;29.70;26.75;98738.91;5005470;28;19921;-87
2023/09/28 04:58:18;;;;;;;;;;;;;;;29.75;27.47;98735.50;5005668;28;20294;-88
2023/09/28 05:00:45;;;;;;;;;;;;;;;29.61;27.77;98733.16;5008152;28;19932;-86
2023/09/28 05:03:11;;;;;;;;;;;;;;;29.97;27.98;98736.34;5007984;28;19921;-88
2023/09/28 05:05:37;;;;;;;;;;;;;;;30.25;27.57;98730.88;5012120;28;20300;-89
2023/09/28 05:08:03;;;;;;;;;;;;;;;30.84;26.50;98727.84;5012111;28;19921;-88
2023/09/28 05:10:30;;;;;;;;;;;;;;;31.03;26.44;98726.69;5013910;28;19925;-89
2023/09/28 05:12:56;;;;;;;;;;;;;;;31.17;26.79;98725.34;5013953;28;20407;-89
2023/09/28 05:15:22;;;;;;;;;;;;;;;31.12;26.40;98725.94;5013510;28;20369;-89
2023/09/28 05:17:48;;;;;;;;;;;;;;;31.34;26.19;98733.09;5018391;28;19921;-89
2023/09/28 05:20:14;;;;;;;;;;;;;;;31.58;25.59;98739.03;5012023;28;19921;-89
2023/09/28 05:22:40;;;;;;;;;;;;;;;31.46;25.24;98737.09;5013800;28;20413;-89
2023/09/28 05:25:06;;;;;;;;;;;;;;;31.49;25.13;98739.03;5013911;28;20448;-89
2023/09/28 05:27:33;;;;;;;;;;;;;;;31.32;25.52;98734.84;5013826;28;19913;-89
2023/09/28 05:29:59;;;;;;;;;;;;;;;31.01;26.11;98734.91;5010944;28;20296;-89
2023/09/28 05:32:25;;;;;;;;;;;;;;;31.15;26.84;98734.31;5010905;28;19922;-89
2023/09/28 05:34:51;;;;;;;;;;;;;;;31.34;27.02;98735.19;5013461;28;19984;-89
2023/09/28 05:37:17;;;;;;;;;;;;;;;31.60;26.62;98742.19;5013396;28;20032;-89
2023/09/28 05:39:43;;;;;;;;;;;;;;;31.97;26.49;98746.69;5012858;28;20009;-90
2023/09/28 05:42:09;;;;;;;;;;;;;;;31.38;26.97;98750.00;5009505;28;19947;-87
2023/09/28 05:44:35;;;;;;;;;;;;;;;31.14;28.14;98752.59;5003867;28;19926;-88
2023/09/28 05:47:01;;;;;;;;;;;;;;;30.98;28.37;98746.38;5007751;28;19921;-88
2023/09/28 05:49:27;;;;;;;;;;;;;;;31.21;28.19;98754.34;5012575;28;19925;-88
2023/09/28 05:51:53;;;;;;;;;;;;;;;31.23;28.32;98752.63;5008202;28;19979;-87
2023/09/28 05:54:19;;;;;;;;;;;;;;;31.41;28.59;98749.06;4998701;28;19928;-88
2023/09/28 05:56:45;;;;;;;;;;;;;;;31.64;28.61;98750.56;5004709;28;20075;-88
2023/09/28 05:59:11;;;;;;;;;;;;;;;31.93;27.98;98751.72;5003122;28;19922;-88
2023/09/28 06:01:37;;;;;;;;;;;;;;;31.86;28.70;98756.91;5009465;28;19972;-92
2023/09/28 06:04:04;;;;;;;;;;;;;;;31.82;28.84;98756.28;5012107;28;19929;-91
2023/09/28 06:06:30;;;;;;;;;;;;;;;32.13;28.56;98754.13;5016691;28;19925;-91
2023/09/28 06:08:56;;;;;;;;;;;;;;;32.05;28.26;98759.34;5015605;28;20334;-91
2023/09/28 06:11:22;;;;;;;;;;;;;;;31.96;28.44;98762.19;5016040;28;20397;-90
2023/09/28 06:13:48;;;;;;;;;;;;;;;32.00;29.39;98762.81;5016202;28;19929;-90
2023/09/28 06:16:15;;;;;;;;;;;;;;;31.76;29.34;98764.66;5016161;28;19921;-90
2023/09/28 06:18:41;;;;;;;;;;;;;;;31.81;29.08;98764.00;5016134;28;19924;-90
2023/09/28 06:21:08;;;;;;;;;;;;;;;32.09;28.95;98764.88;5012216;28;19921;-90
2023/09/28 06:23:35;;;;;;;;;;;;;;;32.12;28.52;98766.75;5014813;28;19947;-91
2023/09/28 06:26:04;;;;;;;;;;;;;;;31.96;29.32;98767.03;5016608;28;19925;-91
2023/09/28 06:28:30;;;;;;;;;;;;;;;31.36;29.92;98773.19;5015564;28;19914;-91
2023/09/28 06:30:57;;;;;;;;;;;;;;;31.31;30.53;98770.16;5015839;28;20301;-91
2023/09/28 06:33:26;;;;;;;;;;;;;;;31.76;30.63;98775.22;5015948;28;19980;-91
2023/09/28 06:35:56;;;;;;;;;;;;;;;31.50;30.20;98771.03;5015787;28;19953;-90
2023/09/28 06:38:22;;;;;;;;;;;;;;;31.49;30.73;98770.25;5015924;28;19917;-91
2023/09/28 06:40:48;;;;;;;;;;;;;;;31.36;31.94;98772.38;5015781;28;19917;-91
2023/09/28 06:43:15;;;;;;;;;;;;;;;30.77;31.61;98779.94;5016057;28;19921;-90
2023/09/28 06:45:41;;;;;;;;;;;;;;;31.20;31.44;98776.25;5014559;28;19918;-91
2023/09/28 06:48:07;;;;;;;;;;;;;;;29.82;33.11;98779.78;5016043;28;19917;-90
2023/09/28 06:50:39;;;;;;;;;;;;;;;29.90;34.11;98781.91;5015533;28;20296;-90
2023/09/28 06:53:05;;;;;;;;;;;;;;;30.12;33.41;98787.63;5019112;28;19951;-90
2023/09/28 06:55:31;;;;;;;;;;;;;;;31.10;31.97;98790.88;5013932;28;19924;-90
2023/09/28 06:57:57;;;;;;;;;;;;;;;30.54;32.50;98783.25;5011984;28;19918;-91
2023/09/28 07:00:23;;;;;;;;;;;;;;;29.74;34.50;98778.41;5030863;28;19994;-91
2023/09/28 07:02:50;;;;;;;;;;;;;;;30.31;34.05;98797.84;5036111;28;19963;-90
2023/09/28 07:05:19;;;;;;;;;;;;;;;31.50;31.47;98790.91;5005733;28;19922;-90
2023/09/28 07:07:45;;;;;;;;;;;;;;;32.29;30.81;98787.94;5005424;28;19922;-90
2023/09/28 07:10:14;;;;;;;;;;;;;;;32.85;30.79;98786.63;5015732;28;19957;-89
2023/09/28 07:12:40;;;;;;;;;;;;;;;33.03;29.51;98784.56;5011387;28;19917;-90
2023/09/28 07:15:07;;;;;;;;;;;;;;;33.25;30.48;98784.31;5015857;28;19918;-90
2023/09/28 07:17:33;;;;;;;;;;;;;;;33.05;29.58;98782.00;5027936;28;19967;-89
2023/09/28 07:19:59;;;;;;;;;;;;;;;33.22;29.71;98783.22;5033848;28;19921;-90
2023/09/28 07:22:26;;;;;;;;;;;;;;;33.28;29.77;98789.84;5015754;28;20344;-90
2023/09/28 07:24:53;;;;;;;;;;;;;;;33.47;29.39;98779.16;5014034;28;19980;-90
2023/09/28 07:27:19;;;;;;;;;;;;;;;34.09;28.20;98782.16;5015624;28;19960;-90
2023/09/28 07:29:45;;;;;;;;;;;;;;;34.24;28.04;98779.38;5015643;28;19928;-89
2023/09/28 07:32:11;;;;;;;;;;;;;;;33.86;27.99;98783.72;5014786;28;19922;-90
2023/09/28 07:34:37;;;;;;;;;;;;;;;34.29;28.36;98781.50;5014657;28;20293;-90
2023/09/28 07:37:03;;;;;;;;;;;;;;;34.41;27.35;98774.75;5013510;28;19921;-89
2023/09/28 07:39:29;;;;;;;;;;;;;;;34.75;27.50;98777.78;5015277;28;19972;-90
2023/09/28 07:41:55;;;;;;;;;;;;;;;34.85;27.62;98781.34;5014158;28;19917;-90
2023/09/28 07:44:21;;;;;;;;;;;;;;;34.27;28.02;98776.31;5015323;28;19918;-88
2023/09/28 07:46:47;;;;;;;;;;;;;;;34.44;28.72;98771.75;5013164;28;20439;-90
2023/09/28 07:49:17;;;;;;;;;;;;;;;35.09;27.48;98764.94;5015342;28;19924;-90
2023/09/28 07:51:43;;;;;;;;;;;;;;;35.10;27.25;98769.34;5032302;28;20019;-89
2023/09/28 07:54:09;;;;;;;;;;;;;;;34.95;27.87;98765.69;5019235;28;19999;-88
2023/09/28 07:56:35;;;;;;;;;;;;;;;34.92;27.40;98766.66;5009891;28;19964;-90
2023/09/28 07:59:01;;;;;;;;;;;;;;;34.80;28.07;98772.69;5014752;28;19926;-89
2023/09/28 08:01:27;;;;;;;;;;;;;;;34.86;26.83;98770.72;5013936;28;19928;-90
2023/09/28 08:03:53;;;;;;;;;;;;;;;34.60;27.99;98768.44;5014579;28;20373;-90
2023/09/28 08:06:20;;;;;;;;;;;;;;;34.96;27.94;98761.53;5012961;28;19932;-90
2023/09/28 08:08:46;;;;;;;;;;;;;;;34.94;28.41;98763.34;5013636;28;19926;-90
2023/09/28 08:11:12;;;;;;;;;;;;;;;35.21;28.38;98760.97;5013517;28;20009;-88
2023/09/28 08:13:38;;;;;;;;;;;;;;;35.31;27.04;98753.84;5015200;28;20004;-88
2023/09/28 08:16:04;;;;;;;;;;;;;;;35.17;26.79;98751.03;5014054;28;19984;-88
2023/09/28 08:18:30;;;;;;;;;;;;;;;35.24;27.75;98762.06;5013928;28;20386;-90
2023/09/28 08:20:57;;;;;;;;;;;;;;;35.72;26.50;98753.97;5014533;28;20284;-90
2023/09/28 08:23:22;;;;;;;;;;;;;;;35.77;24.38;98764.69;5012594;28;19928;-89
2023/09/28 08:25:50;;;;;;;;;;;;;;;36.03;24.92;98757.81;5015105;28;19918;-90
2023/09/28 08:28:16;;;;;;;;;;;;;;;36.04;25.27;98762.22;5014714;28;19913;-88
2023/09/28 08:30:42;;;;;;;;;;;;;;;35.96;25.87;98761.06;5013803;28;20196;-90
2023/09/28 08:33:08;;;;;;;;;;;;;;;36.41;25.12;98762.41;5014041;28;19921;-90
2023/09/28 08:35:36;;;;;;;;;;;;;;;36.62;24.77;98763.16;5014404;28;19975;-90
2023/09/28 08:38:03;;;;;;;;;;;;;;;36.71;25.83;98760.16;5014151;28;19917;-90
2023/09/28 08:40:30;;;;;;;;;;;;;;;36.43;24.45;98762.69;5014011;28;19917;-90
2023/09/28 08:42:59;;;;;;;;;;;;;;;36.46;24.64;98755.19;5016735;28;19967;-90
2023/09/28 08:45:26;;;;;;;;;;;;;;;36.27;25.36;98765.38;5013570;28;20365;-90
2023/09/28 08:47:55;;;;;;;;;;;;;;;36.27;25.12;98768.22;5012925;28;20298;-90
2023/09/28 08:50:28;;;;;;;;;;;;;;;36.34;25.04;98767.78;5017580;28;21438;-88
2023/09/28 08:52:54;;;;;;;;;;;;;;;36.07;24.68;98760.44;5013865;28;19921;-90
2023/09/28 08:55:21;;;;;;;;;;;;;;;36.06;25.13;98759.66;5007840;28;19992;-89
2023/09/28 08:57:48;;;;;;;;;;;;;;;36.33;25.38;98757.63;5011126;28;19972;-87
2023/09/28 09:00:14;;;;;;;;;;;;;;;35.82;25.89;98756.19;5016234;28;19936;-89
2023/09/28 09:02:43;;;;;;;;;;;;;;;36.12;25.62;98761.78;5014331;28;19929;-87
2023/09/28 09:05:13;;;;;;;;;;;;;;;36.19;25.87;98758.50;5010569;28;19940;-87
2023/09/28 09:07:43;;;;;;;;;;;;;;;35.65;26.36;98762.97;5019713;28;19960;-87
2023/09/28 09:10:12;;;;;;;;;;;;;;;35.98;26.66;98754.88;5010828;28;19952;-89
2023/09/28 09:12:39;;;;;;;;;;;;;;;35.43;26.65;98749.88;5010952;28;19921;-89
2023/09/28 09:15:05;;;;;;;;;;;;;;;36.18;25.73;98752.00;5013183;28;20329;-87
2023/09/28 09:17:32;;;;;;;;;;;;;;;35.89;25.83;98752.13;5012172;28;20012;-87
2023/09/28 09:19:59;;;;;;;;;;;;;;;35.94;25.54;98749.31;5013671;28;20008;-88
2023/09/28 09:22:26;;;;;;;;;;;;;;;35.27;26.60;98749.63;5013746;28;19917;-88
2023/09/28 09:24:52;;;;;;;;;;;;;;;34.62;27.89;98757.31;5011719;28;20360;-87
2023/09/28 09:27:24;;;;;;;;;;;;;;;35.69;26.33;98749.22;5011904;28;20902;-88
2023/09/28 09:29:50;;;;;;;;;;;;;;;35.21;25.01;98748.75;5011678;28;19917;-87
2023/09/28 09:32:20;;;;;;;;;;;;;;;36.05;25.64;98746.66;5005995;28;19922;-87
2023/09/28 09:34:46;;;;;;;;;;;;;;;35.97;25.19;98745.50;5014877;28;19965;-87
2023/09/28 09:37:13;;;;;;;;;;;;;;;37.00;23.82;98742.75;5014256;28;19925;-87
2023/09/28 09:39:39;;;;;;;;;;;;;;;37.21;24.11;98747.09;5012692;28;19922;-87
2023/09/28 09:42:05;;;;;;;;;;;;;;;36.60;24.83;98737.13;5014860;28;19925;-87
2023/09/28 09:44:31;;;;;;;;;;;;;;;36.98;24.55;98741.69;5022980;28;19924;-88
2023/09/28 09:46:57;;;;;;;;;;;;;;;37.72;24.93;98736.75;5006470;28;19961;-88
2023/09/28 09:49:24;;;;;;;;;;;;;;;38.24;23.05;98735.22;5018124;28;19975;-87
2023/09/28 09:51:50;;;;;;;;;;;;;;;38.11;23.38;98743.50;4999653;28;19925;-87
2023/09/28 09:54:17;;;;;;;;;;;;;;;37.49;24.89;98733.00;5015122;28;20015;-88
2023/09/28 09:56:46;;;;;;;;;;;;;;;38.15;23.83;98737.50;5016606;28;19921;-88
2023/09/28 09:59:16;;;;;;;;;;;;;;;38.16;24.13;98734.13;5016678;28;19968;-87
2023/09/28 10:01:53;;;;;;;;;;;;;;;37.85;23.97;98737.94;5016749;28;19917;-87
2023/09/28 10:04:20;;;;;;;;;;;;;;;37.31;25.43;98739.09;5016396;28;19929;-87
2023/09/28 10:06:51;;;;;;;;;;;;;;;37.39;26.24;98735.25;5016697;28;19960;-88
2023/09/28 10:09:20;;;;;;;;;;;;;;;36.74;24.99;98727.66;5012937;28;19944;-88
2023/09/28 10:11:49;;;;;;;;;;;;;;;36.32;26.25;98731.09;5024216;28;19960;-88
2023/09/28 10:14:16;;;;;;;;;;;;;;;36.96;25.48;98724.25;5016543;28;19917;-88
2023/09/28 10:16:43;;;;;;;;;;;;;;;36.49;25.55;98722.72;5047582;28;19984;-88
2023/09/28 10:19:09;;;;;;;;;;;;;;;35.96;25.49;98721.03;5015873;28;20017;-87
2023/09/28 10:21:37;;;;;;;;;;;;;;;36.63;25.23;98718.97;5011525;28;19925;-87
2023/09/28 10:24:10;;;;;;;;;;;;;;;37.25;24.84;98721.84;5010101;28;20374;-87
2023/09/28 10:26:38;;;;;;;;;;;;;;;37.33;23.88;98720.09;5016043;28;19921;-88
2023/09/28 10:29:06;;;;;;;;;;;;;;;37.36;24.07;98719.09;5015768;28;19925;-88
2023/09/28 10:31:34;;;;;;;;;;;;;;;37.57;23.98;98731.22;5012688;28;19953;-88
2023/09/28 10:34:01;;;;;;;;;;;;;;;37.34;24.14;98718.03;5011218;28;20337;-87
2023/09/28 10:36:27;;;;;;;;;;;;;;;37.20;24.38;98719.72;5012521;28;19928;-88
2023/09/28 10:39:15;;;;;;;;;;;;;;;37.28;24.14;98728.66;5016496;28;19917;-88
2023/09/28 10:41:49;;;;;;;;;;;;;;;37.59;23.43;98720.03;5017139;28;19917;-88
2023/09/28 10:44:16;;;;;;;;;;;;;;;37.87;23.73;98728.81;5015483;28;19925;-88
2023/09/28 10:46:42;;;;;;;;;;;;;;;38.25;24.54;98724.53;5011817;28;19923;-88
2023/09/28 10:49:10;;;;;;;;;;;;;;;37.14;25.32;98718.13;5014774;28;20351;-89
2023/09/28 10:51:36;;;;;;;;;;;;;;;36.96;24.53;98724.25;5014574;28;19921;-88
2023/09/28 10:54:04;;;;;;;;;;;;;;;36.38;25.07;98719.72;5016418;28;20025;-88
2023/09/28 10:56:30;;;;;;;;;;;;;;;35.96;25.87;98720.25;5015164;28;19932;-89
2023/09/28 10:58:57;;;;;;;;;;;;;;;35.98;25.28;98714.84;5009545;28;19925;-87
2023/09/28 11:01:23;;;;;;;;;;;;;;;36.48;24.87;98721.16;5014847;28;19917;-88
2023/09/28 11:03:53;;;;;;;;;;;;;;;37.11;25.00;98722.03;5013267;28;20015;-88
2023/09/28 11:06:20;;;;;;;;;;;;;;;36.54;24.96;98722.78;5013261;28;19928;-88
2023/09/28 11:08:46;;;;;;;;;;;;;;;36.92;25.38;98718.75;5016890;28;19917;-88
2023/09/28 11:11:12;;;;;;;;;;;;;;;36.73;24.88;98714.66;5015146;28;20293;-88
2023/09/28 11:13:39;;;;;;;;;;;;;;;37.30;24.38;98711.72;5021066;28;19928;-87
2023/09/28 11:16:05;;;;;;;;;;;;;;;36.95;23.65;98712.00;5014679;28;19925;-88
2023/09/28 11:18:31;;;;;;;;;;;;;;;37.04;22.54;98713.91;5024575;28;20278;-88
2023/09/28 11:20:58;;;;;;;;;;;;;;;37.76;21.99;98711.53;5014954;28;19921;-88
2023/09/28 11:23:24;;;;;;;;;;;;;;;37.61;23.45;98708.03;5013725;28;19922;-88
2023/09/28 11:25:51;;;;;;;;;;;;;;;37.94;21.34;98699.63;5046392;28;19949;-88
2023/09/28 11:28:18;;;;;;;;;;;;;;;37.66;23.84;98702.34;5014624;28;19914;-89
2023/09/28 11:30:44;;;;;;;;;;;;;;;37.37;22.36;98696.97;5015411;28;19929;-88
2023/09/28 11:33:10;;;;;;;;;;;;;;;37.08;22.97;98692.31;5013731;28;19925;-88
2023/09/28 11:35:39;;;;;;;;;;;;;;;37.25;23.58;98695.31;5028376;28;19921;-88
2023/09/28 11:38:10;;;;;;;;;;;;;;;36.12;24.16;98693.97;5006212;28;19953;-89
2023/09/28 11:40:37;;;;;;;;;;;;;;;36.84;23.31;98682.47;5014463;28;19917;-88
2023/09/28 11:43:04;;;;;;;;;;;;;;;37.00;23.07;98685.47;5015339;28;19917;-88
2023/09/28 11:45:33;;;;;;;;;;;;;;;37.74;23.40;98674.75;5015593;28;19914;-88
2023/09/28 11:48:06;;;;;;;;;;;;;;;37.97;21.92;98682.16;5015192;28;19918;-88
2023/09/28 11:50:33;;;;;;;;;;;;;;;38.25;21.07;98672.88;4995536;28;19922;-88
2023/09/28 11:52:59;;;;;;;;;;;;;;;38.24;21.68;98674.16;4994474;28;19918;-88
2023/09/28 11:55:25;;;;;;;;;;;;;;;38.74;20.86;98675.09;5006036;28;20402;-88
2023/09/28 11:57:54;;;;;;;;;;;;;;;38.52;21.56;98675.81;5014126;28;20072;-88
2023/09/28 12:00:21;;;;;;;;;;;;;;;37.85;22.83;98676.94;5015100;28;19917;-89
2023/09/28 12:02:47;;;;;;;;;;;;;;;38.09;23.80;98668.66;5014302;28;19919;-88
2023/09/28 12:05:13;;;;;;;;;;;;;;;38.25;22.57;98670.00;5015196;28;20295;-88
2023/09/28 12:07:40;;;;;;;;;;;;;;;38.06;23.18;98669.69;5014239;28;19921;-87
2023/09/28 12:10:14;;;;;;;;;;;;;;;38.41;23.16;98672.94;5013933;28;19975;-89
2023/09/28 12:12:40;;;;;;;;;;;;;;;38.77;23.99;98670.41;5013786;28;19940;-88
2023/09/28 12:15:10;;;;;;;;;;;;;;;39.30;21.29;98655.72;5014629;28;19917;-88
2023/09/28 12:17:37;;;;;;;;;;;;;;;38.99;20.78;98664.63;5012333;28;19931;-89
2023/09/28 12:20:04;;;;;;;;;;;;;;;39.12;20.37;98654.16;5002736;28;19961;-88
2023/09/28 12:22:30;;;;;;;;;;;;;;;38.82;20.94;98672.47;5020563;28;20007;-88
2023/09/28 12:24:56;;;;;;;;;;;;;;;38.76;22.25;98668.81;5016249;28;20376;-90
2023/09/28 12:27:22;;;;;;;;;;;;;;;38.22;21.05;98657.47;5013319;28;19949;-90
2023/09/28 12:29:48;;;;;;;;;;;;;;;38.63;22.82;98667.22;5014607;28;19917;-91
2023/09/28 12:32:14;;;;;;;;;;;;;;;39.41;20.61;98658.56;5014521;28;19921;-91
2023/09/28 12:34:40;;;;;;;;;;;;;;;39.64;21.89;98659.31;5014319;28;19925;-90
2023/09/28 12:37:07;;;;;;;;;;;;;;;39.11;22.60;98655.47;5014690;28;20013;-91
2023/09/28 12:39:33;;;;;;;;;;;;;;;38.83;21.69;98659.69;5022339;28;19971;-90
2023/09/28 12:42:01;;;;;;;;;;;;;;;38.30;21.57;98655.69;5034393;28;19940;-89
2023/09/28 12:44:28;;;;;;;;;;;;;;;37.94;21.52;98659.50;5032559;28;19924;-90
2023/09/28 12:46:54;;;;;;;;;;;;;;;38.80;22.33;98661.50;5034325;28;19986;-89